createdAt,value
2023-06-23T00:01:05.434Z,97183.84
2023-06-23T00:03:33.060Z,97175.03
2023-06-23T00:06:04.961Z,97178.81
2023-06-23T00:08:32.508Z,97180.09
2023-06-23T00:11:00.165Z,97180.38
2023-06-23T00:13:28.391Z,97187.31
2023-06-23T00:15:55.955Z,97185.47
2023-06-23T00:18:23.578Z,97178.94
2023-06-23T00:20:51.136Z,97189.38
2023-06-23T00:23:20.038Z,97196.59
2023-06-23T00:25:47.792Z,97192.16
2023-06-23T00:28:15.578Z,97199.03
2023-06-23T00:30:43.199Z,97189.88
2023-06-23T00:33:10.798Z,97190.25
2023-06-23T00:35:38.540Z,97176.56
2023-06-23T00:38:06.152Z,97182.06
2023-06-23T00:40:35.375Z,97172.78
2023-06-23T00:43:02.977Z,97171.22
2023-06-23T00:45:30.866Z,97171.84
2023-06-23T00:47:58.786Z,97169.19
2023-06-23T00:50:27.292Z,97175.81
2023-06-23T00:52:55.409Z,97172.84
2023-06-23T00:55:24.170Z,97165.66
2023-06-23T00:57:55.366Z,97170.94
2023-06-23T01:00:24.853Z,97168.16
2023-06-23T01:02:54.808Z,97164.09
2023-06-23T01:05:25.925Z,97172.03
2023-06-23T01:08:04.909Z,97169.78
2023-06-23T01:10:37.770Z,97175.13
2023-06-23T01:13:17.625Z,97186.31
2023-06-23T01:15:52.119Z,97181.03
2023-06-23T01:18:28.518Z,97185.66
2023-06-23T01:21:02.297Z,97186.31
2023-06-23T01:23:58.130Z,97189.47
2023-06-23T01:26:56.525Z,97187.28
2023-06-23T01:29:30.136Z,97200.88
2023-06-23T01:32:02.925Z,97197.13
2023-06-23T01:34:37.328Z,97189.19
2023-06-23T01:37:10.913Z,97192.72
2023-06-23T01:39:41.845Z,97197.19
2023-06-23T01:42:14.929Z,97191.88
2023-06-23T01:44:49.428Z,97198.47
2023-06-23T01:47:19.458Z,97202.22
2023-06-23T01:49:49.646Z,97206.41
2023-06-23T01:52:19.185Z,97211.56
2023-06-23T01:54:47.713Z,97212.78
2023-06-23T01:57:18.219Z,97213.34
2023-06-23T01:59:48.668Z,97205.53
2023-06-23T02:02:18.211Z,97217.47
2023-06-23T02:04:48.926Z,97218.22
2023-06-23T02:07:19.120Z,97223.50
2023-06-23T02:09:47.770Z,97221.22
2023-06-23T02:12:17.896Z,97222.63
2023-06-23T02:14:49.181Z,97225.59
2023-06-23T02:17:17.225Z,97229.84
2023-06-23T02:19:47.819Z,97235.88
2023-06-23T02:22:28.378Z,97231.41
2023-06-23T02:24:57.454Z,97244.09
2023-06-23T02:27:26.218Z,97270.78
2023-06-23T02:29:55.782Z,97296.97
2023-06-23T02:32:26.581Z,97290.81
2023-06-23T02:34:54.303Z,97280.28
2023-06-23T02:37:25.882Z,97280.50
2023-06-23T02:39:57.830Z,97275.75
2023-06-23T02:42:32.675Z,97275.06
2023-06-23T02:45:05.443Z,97277.94
2023-06-23T02:47:38.672Z,97272.69
2023-06-23T02:50:11.283Z,97276.59
2023-06-23T02:52:42.525Z,97282.19
2023-06-23T02:55:11.459Z,97289.53
2023-06-23T02:57:39.838Z,97289.88
2023-06-23T03:00:14.171Z,97294.06
2023-06-23T03:02:44.441Z,97295.22
2023-06-23T03:05:12.397Z,97300.22
2023-06-23T03:07:40.328Z,97308.69
2023-06-23T03:10:08.853Z,97313.94
2023-06-23T03:12:36.752Z,97325.38
2023-06-23T03:15:04.827Z,97325.81
2023-06-23T03:17:35.456Z,97322.25
2023-06-23T03:20:09.265Z,97334.59
2023-06-23T03:22:41.379Z,97337.09
2023-06-23T03:25:16.301Z,97333.25
2023-06-23T03:27:45.516Z,97346.38
2023-06-23T03:30:18.934Z,97348.28
2023-06-23T03:32:51.296Z,97346.38
2023-06-23T03:35:22.637Z,97350.50
2023-06-23T03:37:52.905Z,97357.78
2023-06-23T03:40:24.193Z,97352.31
2023-06-23T03:42:55.775Z,97357.38
2023-06-23T03:45:26.464Z,97361.97
2023-06-23T03:48:01.029Z,97371.03
2023-06-23T03:50:32.190Z,97379.47
2023-06-23T03:53:02.863Z,97391.44
2023-06-23T03:55:33.349Z,97388.41
2023-06-23T03:58:04.482Z,97386.72
2023-06-23T04:00:34.006Z,97389.91
2023-06-23T04:03:07.084Z,97400.75
2023-06-23T04:05:37.134Z,97409.94
2023-06-23T04:08:06.303Z,97405.19
2023-06-23T04:10:35.772Z,97420.53
2023-06-23T04:13:04.845Z,97413.06
2023-06-23T04:15:35.918Z,97418.38
2023-06-23T04:18:07.646Z,97425.06
2023-06-23T04:20:36.474Z,97432.44
2023-06-23T04:23:06.527Z,97431.13
2023-06-23T04:25:34.362Z,97439.13
2023-06-23T04:28:06.166Z,97436.56
2023-06-23T04:30:36.542Z,97454.66
2023-06-23T04:33:05.808Z,97457.53
2023-06-23T04:35:33.860Z,97464.72
2023-06-23T04:38:04.605Z,97461.41
2023-06-23T04:40:37.118Z,97464.34
2023-06-23T04:43:10.565Z,97466.91
2023-06-23T04:45:42.651Z,97468.34
2023-06-23T04:48:14.702Z,97479.97
2023-06-23T04:50:44.635Z,97483.19
2023-06-23T04:53:17.810Z,97480.25
2023-06-23T04:55:49.927Z,97484.22
2023-06-23T04:58:19.235Z,97494.41
2023-06-23T05:00:49.040Z,97487.72
2023-06-23T05:03:20.481Z,97497.09
2023-06-23T05:05:52.072Z,97500.91
2023-06-23T05:08:20.292Z,97503.78
2023-06-23T05:10:48.588Z,97500.41
2023-06-23T05:13:18.494Z,97505.28
2023-06-23T05:15:48.116Z,97492.31
2023-06-23T05:18:18.863Z,97502.34
2023-06-23T05:20:48.230Z,97494.59
2023-06-23T05:23:19.470Z,97495.69
2023-06-23T05:25:51.482Z,97499.16
2023-06-23T05:28:21.771Z,97502.66
2023-06-23T05:30:50.688Z,97516.72
2023-06-23T05:33:21.024Z,97510.28
2023-06-23T05:35:50.253Z,97522.25
2023-06-23T05:38:20.548Z,97517.59
2023-06-23T05:40:48.219Z,97508.97
2023-06-23T05:43:15.884Z,97523.31
2023-06-23T05:45:43.567Z,97518.59
2023-06-23T05:48:17.815Z,97511.38
2023-06-23T05:50:49.183Z,97514.59
2023-06-23T05:53:20.831Z,97516.50
2023-06-23T05:56:03.842Z,97517.63
2023-06-23T05:58:35.711Z,97518.06
2023-06-23T06:01:09.331Z,97510.22
2023-06-23T06:03:40.098Z,97508.38
2023-06-23T06:06:09.723Z,97515.97
2023-06-23T06:08:40.150Z,97512.28
2023-06-23T06:11:10.472Z,97507.75
2023-06-23T06:13:43.119Z,97523.44
2023-06-23T06:16:12.690Z,97514.28
2023-06-23T06:18:41.684Z,97511.44
2023-06-23T06:21:12.530Z,97511.88
2023-06-23T06:23:41.434Z,97522.72
2023-06-23T06:26:10.986Z,97526.56
2023-06-23T06:28:40.756Z,97532.09
2023-06-23T06:31:09.833Z,97532.03
2023-06-23T06:33:39.438Z,97535.34
2023-06-23T06:36:10.963Z,97531.00
2023-06-23T06:38:39.715Z,97538.41
2023-06-23T06:41:09.006Z,97535.25
2023-06-23T06:43:37.399Z,97538.22
2023-06-23T06:46:08.131Z,97543.19
2023-06-23T06:48:36.699Z,97545.19
2023-06-23T06:51:06.428Z,97543.19
2023-06-23T06:53:35.650Z,97544.16
2023-06-23T06:56:03.566Z,97538.63
2023-06-23T06:58:31.728Z,97532.50
2023-06-23T07:01:00.265Z,97542.53
2023-06-23T07:03:29.051Z,97538.72
2023-06-23T07:05:56.691Z,97543.59
2023-06-23T07:08:24.345Z,97549.53
2023-06-23T07:10:53.258Z,97547.22
2023-06-23T07:13:20.826Z,97547.69
2023-06-23T07:15:48.587Z,97553.34
2023-06-23T07:18:16.683Z,97550.94
2023-06-23T07:20:44.581Z,97560.22
2023-06-23T07:23:12.276Z,97559.97
2023-06-23T07:25:39.979Z,97567.53
2023-06-23T07:28:08.982Z,97569.56
2023-06-23T07:30:38.813Z,97564.53
2023-06-23T07:33:06.522Z,97565.94
2023-06-23T07:35:34.317Z,97575.53
2023-06-23T07:38:02.638Z,97572.88
2023-06-23T07:40:30.498Z,97580.31
2023-06-23T07:42:58.223Z,97578.44
2023-06-23T07:45:27.109Z,97574.03
2023-06-23T07:47:54.683Z,97580.66
2023-06-23T07:50:22.313Z,97588.03
2023-06-23T07:52:54.511Z,97580.72
2023-06-23T07:55:22.222Z,97577.88
2023-06-23T07:57:50.721Z,97576.94
2023-06-23T08:00:19.201Z,97572.78
2023-06-23T08:02:48.170Z,97573.28
2023-06-23T08:05:15.889Z,97576.06
2023-06-23T08:07:45.853Z,97578.28
2023-06-23T08:10:14.105Z,97570.84
2023-06-23T08:12:41.812Z,97572.88
2023-06-23T08:15:10.539Z,97571.03
2023-06-23T08:17:38.398Z,97579.59
2023-06-23T08:20:08.749Z,97572.34
2023-06-23T08:22:36.289Z,97583.38
2023-06-23T08:25:05.289Z,97577.56
2023-06-23T08:27:32.899Z,97582.44
2023-06-23T08:30:00.564Z,97594.00
2023-06-23T08:32:28.147Z,97594.84
2023-06-23T08:34:55.779Z,97602.34
2023-06-23T08:37:24.750Z,97595.84
2023-06-23T08:39:52.419Z,97601.16
2023-06-23T08:42:21.299Z,97602.22
2023-06-23T08:44:50.686Z,97616.66
2023-06-23T08:47:22.099Z,97615.19
2023-06-23T08:49:50.520Z,97610.34
2023-06-23T08:52:18.553Z,97604.22
2023-06-23T08:54:47.601Z,97606.34
2023-06-23T08:57:15.437Z,97606.38
2023-06-23T08:59:43.078Z,97610.69
2023-06-23T09:02:10.678Z,97614.94
2023-06-23T09:04:38.306Z,97617.75
2023-06-23T09:07:06.724Z,97608.31
2023-06-23T09:09:35.252Z,97613.34
2023-06-23T09:12:05.107Z,97617.69
2023-06-23T09:14:33.862Z,97609.75
2023-06-23T09:17:02.139Z,97623.47
2023-06-23T09:19:31.240Z,97621.03
2023-06-23T09:21:59.319Z,97618.13
2023-06-23T09:24:40.237Z,97618.53
2023-06-23T09:27:09.433Z,97618.53
2023-06-23T09:29:38.370Z,97615.75
2023-06-23T09:32:07.211Z,97621.56
2023-06-23T09:34:35.644Z,97623.06
2023-06-23T09:37:10.440Z,97615.81
2023-06-23T09:39:39.389Z,97625.81
2023-06-23T09:42:13.014Z,97625.56
2023-06-23T09:44:42.261Z,97628.53
2023-06-23T09:47:10.391Z,97623.63
2023-06-23T09:49:41.742Z,97626.31
2023-06-23T09:52:11.146Z,97630.69
2023-06-23T09:54:40.611Z,97622.75
2023-06-23T09:57:10.852Z,97629.47
2023-06-23T09:59:40.092Z,97631.78
2023-06-23T10:02:08.161Z,97629.59
2023-06-23T10:04:36.628Z,97629.41
2023-06-23T10:07:21.261Z,97616.16
2023-06-23T10:09:57.051Z,97617.78
2023-06-23T10:12:33.287Z,97611.00
2023-06-23T10:15:00.984Z,97616.06
2023-06-23T10:17:28.589Z,97620.66
2023-06-23T10:19:57.220Z,97624.41
2023-06-23T10:22:25.086Z,97621.06
2023-06-23T10:24:54.095Z,97622.53
2023-06-23T10:27:24.840Z,97619.75
2023-06-23T10:29:55.744Z,97624.69
2023-06-23T10:32:25.022Z,97616.84
2023-06-23T10:34:53.858Z,97623.88
2023-06-23T10:37:35.279Z,97609.22
2023-06-23T10:40:15.268Z,97613.94
2023-06-23T10:42:45.216Z,97611.69
2023-06-23T10:45:14.270Z,97596.22
2023-06-23T10:47:42.367Z,97606.00
2023-06-23T10:50:11.743Z,97613.50
2023-06-23T10:52:39.436Z,97613.72
2023-06-23T10:55:36.024Z,97601.19
2023-06-23T10:58:11.255Z,97602.94
2023-06-23T11:00:40.150Z,97602.28
2023-06-23T11:03:10.666Z,97592.34
2023-06-23T11:05:43.367Z,97592.81
2023-06-23T11:08:13.348Z,97588.91
2023-06-23T11:10:48.944Z,97588.59
2023-06-23T11:13:16.817Z,97586.25
2023-06-23T11:15:54.150Z,97594.81
2023-06-23T11:18:23.002Z,97587.78
2023-06-23T11:20:51.925Z,97591.69
2023-06-23T11:23:20.300Z,97587.75
2023-06-23T11:25:49.395Z,97579.25
2023-06-23T11:28:31.107Z,97587.75
2023-06-23T11:31:14.409Z,97586.59
2023-06-23T11:33:43.729Z,97586.59
2023-06-23T11:36:13.155Z,97580.44
2023-06-23T11:38:42.454Z,97581.59
2023-06-23T11:41:10.599Z,97569.53
2023-06-23T11:43:39.648Z,97583.53
2023-06-23T11:46:12.917Z,97571.50
2023-06-23T11:48:41.339Z,97564.88
2023-06-23T11:51:10.438Z,97574.56
2023-06-23T11:53:41.270Z,97576.13
2023-06-23T11:56:09.865Z,97568.72
2023-06-23T11:58:37.938Z,97570.25
2023-06-23T12:01:05.710Z,97566.31
2023-06-23T12:03:36.331Z,97568.25
2023-06-23T12:06:04.156Z,97559.72
2023-06-23T12:08:31.758Z,97554.06
2023-06-23T12:10:59.325Z,97560.25
2023-06-23T12:13:27.178Z,97558.69
2023-06-23T12:15:58.966Z,97551.19
2023-06-23T12:18:26.729Z,97563.25
2023-06-23T12:20:55.710Z,97564.81
2023-06-23T12:23:23.725Z,97558.84
2023-06-23T12:25:52.018Z,97567.66
2023-06-23T12:28:21.008Z,97564.66
2023-06-23T12:30:50.946Z,97562.81
2023-06-23T12:33:21.536Z,97559.88
2023-06-23T12:36:01.623Z,97563.06
2023-06-23T12:38:30.224Z,97558.91
2023-06-23T12:41:14.937Z,97543.47
2023-06-23T12:43:43.395Z,97552.94
2023-06-23T12:46:12.365Z,97551.59
2023-06-23T12:48:40.825Z,97546.19
2023-06-23T12:51:09.859Z,97550.25
2023-06-23T12:53:37.755Z,97547.09
2023-06-23T12:56:05.632Z,97546.84
2023-06-23T12:58:33.162Z,97538.91
2023-06-23T13:01:03.498Z,97541.28
2023-06-23T13:03:31.122Z,97538.97
2023-06-23T13:05:59.847Z,97532.97
2023-06-23T13:08:29.086Z,97532.88
2023-06-23T13:10:56.669Z,97528.25
2023-06-23T13:13:24.249Z,97529.50
2023-06-23T13:15:52.282Z,97534.00
2023-06-23T13:18:19.902Z,97536.78
2023-06-23T13:20:47.488Z,97532.91
2023-06-23T13:23:15.110Z,97524.53
2023-06-23T13:25:44.359Z,97521.72
2023-06-23T13:28:12.010Z,97518.84
2023-06-23T13:30:39.529Z,97529.47
2023-06-23T13:33:07.419Z,97525.41
2023-06-23T13:35:35.619Z,97522.41
2023-06-23T13:38:03.459Z,97520.22
2023-06-23T13:40:31.106Z,97523.66
2023-06-23T13:43:00.742Z,97524.63
2023-06-23T13:45:28.941Z,97523.84
2023-06-23T13:47:56.627Z,97523.88
2023-06-23T13:50:24.236Z,97522.31
2023-06-23T13:52:51.806Z,97519.63
2023-06-23T13:55:19.409Z,97521.84
2023-06-23T13:57:47.160Z,97505.47
2023-06-23T14:00:17.041Z,97509.69
2023-06-23T14:02:44.678Z,97511.56
2023-06-23T14:05:15.163Z,97513.44
2023-06-23T14:07:42.956Z,97513.38
2023-06-23T14:10:11.219Z,97517.03
2023-06-23T14:12:38.778Z,97523.56
2023-06-23T14:15:07.911Z,97522.00
2023-06-23T14:17:36.900Z,97520.38
2023-06-23T14:20:05.611Z,97514.84
2023-06-23T14:22:33.173Z,97516.72
2023-06-23T14:25:00.735Z,97512.88
2023-06-23T14:27:29.150Z,97508.91
2023-06-23T14:29:57.127Z,97512.94
2023-06-23T14:32:24.856Z,97502.91
2023-06-23T14:34:53.894Z,97511.47
2023-06-23T14:37:21.437Z,97513.03
2023-06-23T14:39:49.013Z,97508.31
2023-06-23T14:42:16.614Z,97516.59
2023-06-23T14:44:44.172Z,97515.69
2023-06-23T14:47:11.752Z,97502.91
2023-06-23T14:49:39.390Z,97515.03
2023-06-23T14:52:08.603Z,97510.56
2023-06-23T14:54:36.278Z,97517.63
2023-06-23T14:57:03.903Z,97514.63
2023-06-23T14:59:31.508Z,97517.84
2023-06-23T15:01:59.099Z,97515.50
2023-06-23T15:04:26.973Z,97512.88
2023-06-23T15:06:54.649Z,97523.25
2023-06-23T15:09:23.618Z,97513.50
2023-06-23T15:11:51.231Z,97521.84
2023-06-23T15:14:19.254Z,97509.38
2023-06-23T15:16:46.811Z,97512.56
2023-06-23T15:19:14.532Z,97508.28
2023-06-23T15:21:42.126Z,97509.00
2023-06-23T15:24:09.962Z,97504.09
2023-06-23T15:26:38.969Z,97506.72
2023-06-23T15:29:07.742Z,97500.84
2023-06-23T15:31:35.468Z,97501.16
2023-06-23T15:34:03.083Z,97503.25
2023-06-23T15:36:32.684Z,97505.00
2023-06-23T15:39:01.576Z,97504.31
2023-06-23T15:41:29.126Z,97504.81
2023-06-23T15:43:58.041Z,97503.91
2023-06-23T15:46:25.609Z,97508.53
2023-06-23T15:48:53.180Z,97514.63
2023-06-23T15:51:23.152Z,97512.88
2023-06-23T15:53:50.776Z,97510.25
2023-06-23T15:56:18.458Z,97514.63
2023-06-23T15:58:46.056Z,97503.31
2023-06-23T16:01:15.192Z,97510.13
2023-06-23T16:03:43.031Z,97504.97
2023-06-23T16:06:10.759Z,97507.47
2023-06-23T16:08:38.342Z,97509.53
2023-06-23T16:11:07.853Z,97510.19
2023-06-23T16:13:37.341Z,97511.38
2023-06-23T16:16:05.665Z,97507.03
2023-06-23T16:18:34.723Z,97507.75
2023-06-23T16:21:02.332Z,97507.31
2023-06-23T16:23:29.901Z,97509.50
2023-06-23T16:25:57.871Z,97503.66
2023-06-23T16:28:25.518Z,97507.72
2023-06-23T16:30:54.376Z,97509.06
2023-06-23T16:33:22.061Z,97511.13
2023-06-23T16:35:50.996Z,97511.41
2023-06-23T16:38:18.572Z,97523.09
2023-06-23T16:40:46.371Z,97522.56
2023-06-23T16:43:14.254Z,97521.25
2023-06-23T16:45:41.933Z,97525.44
2023-06-23T16:48:09.545Z,97523.19
2023-06-23T16:50:38.041Z,97523.53
2023-06-23T16:53:08.920Z,97530.41
2023-06-23T16:55:36.566Z,97532.38
2023-06-23T16:58:04.231Z,97534.84
2023-06-23T17:00:33.297Z,97536.06
2023-06-23T17:03:01.199Z,97534.69
2023-06-23T17:05:28.907Z,97535.13
2023-06-23T17:07:56.504Z,97542.16
2023-06-23T17:10:25.580Z,97538.31
2023-06-23T17:12:53.376Z,97542.22
2023-06-23T17:15:21.306Z,97539.06
2023-06-23T17:17:48.995Z,97546.88
2023-06-23T17:20:16.829Z,97546.19
2023-06-23T17:22:44.438Z,97546.50
2023-06-23T17:25:13.143Z,97541.72
2023-06-23T17:27:42.121Z,97542.41
2023-06-23T17:30:10.394Z,97550.88
2023-06-23T17:32:38.170Z,97543.69
2023-06-23T17:35:06.535Z,97547.88
2023-06-23T17:37:34.296Z,97558.78
2023-06-23T17:40:01.852Z,97549.03
2023-06-23T17:42:29.532Z,97547.38
2023-06-23T17:44:58.459Z,97559.56
2023-06-23T17:47:27.108Z,97554.16
2023-06-23T17:49:55.052Z,97557.47
2023-06-23T17:52:22.846Z,97559.78
2023-06-23T17:54:50.434Z,97565.97
2023-06-23T17:57:18.999Z,97563.69
2023-06-23T17:59:46.547Z,97557.50
2023-06-23T18:02:21.024Z,97557.22
2023-06-23T18:04:49.130Z,97553.75
2023-06-23T18:07:17.232Z,97552.66
2023-06-23T18:09:45.013Z,97559.75
2023-06-23T18:12:12.555Z,97558.38
2023-06-23T18:14:40.174Z,97556.53
2023-06-23T18:17:07.915Z,97562.56
2023-06-23T18:19:36.826Z,97562.47
2023-06-23T18:22:04.787Z,97557.84
2023-06-23T18:24:32.399Z,97559.19
2023-06-23T18:26:59.966Z,97555.34
2023-06-23T18:29:28.279Z,97559.25
2023-06-23T18:32:13.533Z,97567.94
2023-06-23T18:34:43.000Z,97570.78
2023-06-23T18:37:12.053Z,97567.34
2023-06-23T18:39:39.608Z,97564.28
2023-06-23T18:42:07.979Z,97566.72
2023-06-23T18:44:36.299Z,97573.34
2023-06-23T18:47:04.239Z,97567.94
2023-06-23T18:49:32.133Z,97565.22
2023-06-23T18:52:01.160Z,97559.41
2023-06-23T18:54:28.745Z,97569.16
2023-06-23T18:56:58.581Z,97561.78
2023-06-23T18:59:27.496Z,97570.72
2023-06-23T19:01:55.316Z,97565.25
2023-06-23T19:04:23.006Z,97570.69
2023-06-23T19:06:51.070Z,97566.38
2023-06-23T19:09:20.100Z,97567.50
2023-06-23T19:11:47.647Z,97564.78
2023-06-23T19:14:15.323Z,97562.03
2023-06-23T19:16:42.901Z,97567.00
2023-06-23T19:19:10.462Z,97569.69
2023-06-23T19:21:38.168Z,97573.84
2023-06-23T19:24:06.643Z,97576.44
2023-06-23T19:26:35.697Z,97580.66
2023-06-23T19:29:03.878Z,97584.09
2023-06-23T19:31:31.524Z,97594.00
2023-06-23T19:33:59.164Z,97588.41
2023-06-23T19:36:26.757Z,97593.44
2023-06-23T19:38:54.371Z,97596.41
2023-06-23T19:41:21.983Z,97600.19
2023-06-23T19:43:51.016Z,97592.25
2023-06-23T19:46:18.638Z,97596.44
2023-06-23T19:48:46.316Z,97602.63
2023-06-23T19:51:13.837Z,97600.75
2023-06-23T19:53:42.894Z,97603.09
2023-06-23T19:56:10.546Z,97622.44
2023-06-23T19:58:38.213Z,97623.66
2023-06-23T20:01:07.197Z,97628.66
2023-06-23T20:03:34.939Z,97630.00
2023-06-23T20:06:02.679Z,97640.59
2023-06-23T20:08:30.372Z,97638.41
2023-06-23T20:10:57.911Z,97643.59
2023-06-23T20:13:25.482Z,97641.34
2023-06-23T20:15:53.071Z,97644.78
2023-06-23T20:18:22.035Z,97643.84
2023-06-23T20:20:50.023Z,97645.72
2023-06-23T20:23:17.594Z,97656.63
2023-06-23T20:25:45.234Z,97664.16
2023-06-23T20:28:14.282Z,97655.66
2023-06-23T20:30:41.877Z,97659.03
2023-06-23T20:33:09.464Z,97659.50
2023-06-23T20:35:38.508Z,97664.53
2023-06-23T20:38:06.037Z,97660.38
2023-06-23T20:40:33.851Z,97655.81
2023-06-23T20:43:01.970Z,97656.16
2023-06-23T20:45:29.519Z,97659.63
2023-06-23T20:47:57.952Z,97652.69
2023-06-23T20:50:25.618Z,97654.97
2023-06-23T20:52:54.497Z,97652.53
2023-06-23T20:55:22.067Z,97650.44
2023-06-23T20:57:49.655Z,97655.81
2023-06-23T21:00:18.118Z,97657.66
2023-06-23T21:02:45.750Z,97656.25
2023-06-23T21:05:13.385Z,97667.38
2023-06-23T21:07:40.916Z,97662.03
2023-06-23T21:12:43.581Z,97657.72
2023-06-23T21:15:11.148Z,97665.50
2023-06-23T21:20:10.286Z,97664.97
2023-06-23T21:22:38.285Z,97665.00
2023-06-23T21:25:06.376Z,97667.28
2023-06-23T21:27:35.372Z,97661.09
2023-06-23T21:30:04.535Z,97670.50
2023-06-23T21:32:32.467Z,97664.16
2023-06-23T21:35:00.056Z,97663.53
2023-06-23T21:37:27.713Z,97668.19
2023-06-23T21:39:55.435Z,97662.59
2023-06-23T21:42:24.318Z,97671.06
2023-06-23T21:44:53.597Z,97669.50
2023-06-23T21:47:21.186Z,97667.09
2023-06-23T21:49:48.923Z,97664.25
2023-06-23T21:52:16.608Z,97664.44
2023-06-23T21:54:45.467Z,97667.34
2023-06-23T21:57:13.002Z,97666.44
2023-06-23T21:59:40.581Z,97670.25
2023-06-23T22:02:09.589Z,97667.22
2023-06-23T22:04:37.238Z,97656.19
2023-06-23T22:07:05.327Z,97656.06
2023-06-23T22:09:33.112Z,97660.19
2023-06-23T22:12:00.682Z,97662.88
2023-06-23T22:14:28.313Z,97666.50
2023-06-23T22:16:56.140Z,97659.38
2023-06-23T22:19:25.154Z,97664.13
2023-06-23T22:21:53.394Z,97651.78
2023-06-23T22:24:20.941Z,97655.09
2023-06-23T22:26:48.509Z,97653.69
2023-06-23T22:29:16.930Z,97665.47
2023-06-23T22:31:44.950Z,97662.75
2023-06-23T22:34:12.580Z,97661.97
2023-06-23T22:36:41.633Z,97660.84
2023-06-23T22:39:09.250Z,97665.56
2023-06-23T22:41:36.894Z,97661.53
2023-06-23T22:44:04.934Z,97655.00
2023-06-23T22:46:32.508Z,97658.25
2023-06-23T22:49:00.115Z,97665.50
2023-06-23T22:51:32.406Z,97665.31
2023-06-23T22:54:01.456Z,97661.22
2023-06-23T22:56:29.044Z,97665.66
2023-06-23T22:58:56.624Z,97662.28
2023-06-23T23:01:25.168Z,97657.66
2023-06-23T23:03:52.892Z,97656.78
2023-06-23T23:06:20.668Z,97656.00
2023-06-23T23:08:49.561Z,97654.78
2023-06-23T23:11:18.588Z,97659.06
2023-06-23T23:13:46.150Z,97653.31
2023-06-23T23:16:15.182Z,97650.16
2023-06-23T23:18:44.531Z,97645.13
2023-06-23T23:21:12.586Z,97643.56
2023-06-23T23:23:40.432Z,97637.03
2023-06-23T23:26:09.882Z,97648.34
2023-06-23T23:28:43.266Z,97643.56
2023-06-23T23:31:12.356Z,97640.28
2023-06-23T23:33:40.754Z,97640.97
2023-06-23T23:36:08.666Z,97648.31
2023-06-23T23:38:36.201Z,97648.81
2023-06-23T23:41:03.877Z,97658.59
2023-06-23T23:43:31.493Z,97648.78
2023-06-23T23:46:00.461Z,97646.94
2023-06-23T23:48:28.304Z,97646.25
2023-06-23T23:50:55.869Z,97639.31
2023-06-23T23:53:23.453Z,97635.59
2023-06-23T23:55:51.038Z,97643.06
2023-06-23T23:58:18.742Z,97645.78
